Elba, Idaho
Current Conditions -  °F | °C
As of 2:53 AM on Wednesday 26 Nov 2014 (Local Time) from KBYI Reporting Station
Clear Clear  
Wind Chill: 39°   Ceiling: Unl
Heat Index: 45°   Visibility: 10mi
Dew Point: 34°   Wind: 13mph
Humidity: 65%   Direction: 250°WSW
Pressure: 30.28"   Gusts: NA
Location:  42.25°N, 113.56°W
Report Text: KBYI 260953Z AUTO 25011KT 10SM CLR 07/01 A3028 RMK AO2 SLP245 T00720011
Loading
Personal Weather Stations






























Interactive Weather Map New forecast layout! Learn more

10-Day Weather Forecast

Advertisements
Track Severe Weather on mobile